KOPF/OPF METAR and TAF weather

Enter ICAO airport designator
Station Type Date Time Source
KOPF METAR 2021/04/18 01:53 UTC NOAA

KOPF 180153Z 27008KT 10SM CLR 26/17 A2991 RMK AO2 SLP130 T02560172 PNO


Station Type Date Time Source
KOPF Decoded METAR 2021/04/18 01:53 UTC NOAA

MIAMI OPA LOCKA AIRPORT, FL, United States (KOPF) 25-54N 80-17W 16M
Apr 17, 2021 - 09:53 PM EDT / 2021.04.18 0153 UTC
Wind: from the W (270 degrees) at 9 MPH (8 KT):0
Visibility: 10 mile(s):0
Sky conditions: clear
Temperature: 78.1 F (25.6 C)
Dew Point: 63.0 F (17.2 C)
Relative Humidity: 59%
Pressure (altimeter): 29.91 in. Hg (1012 hPa)
ob: KOPF 180153Z 27008KT 10SM CLR 26/17 A2991 RMK AO2 SLP130 T02560172 PNO
cycle: 2

Station Type Date Time Source
KOPF TAF 2021/04/17 21:34 UTC NOAA

TAF
AMD KOPF 172032Z 1721/1818 26014KT P6SM FEW035 SCT250
FM180100 21005KT P6SM FEW035 SCT250
FM181600 22012KT P6SM SCT035 SCT100

Example: see airport list